createdAt,value
2016-12-23T00:00:13.930Z,25.12
2016-12-23T00:00:28.466Z,25.17
2016-12-23T00:00:43.043Z,25.22
2016-12-23T00:00:57.586Z,25.19
2016-12-23T00:01:12.053Z,25.07
2016-12-23T00:01:26.486Z,25.12
2016-12-23T00:01:41.281Z,25.07
2016-12-23T00:01:55.850Z,25.17
2016-12-23T00:02:10.287Z,25.23
2016-12-23T00:02:24.958Z,25.2
2016-12-23T00:02:39.482Z,25.19
2016-12-23T00:02:54.075Z,25.26
2016-12-23T00:03:08.540Z,25.23
2016-12-23T00:03:23.087Z,25.3
2016-12-23T00:03:37.668Z,25.37
2016-12-23T00:03:52.235Z,25.29
2016-12-23T00:04:06.657Z,25.38
2016-12-23T00:04:21.080Z,25.39
2016-12-23T00:04:35.595Z,25.3
2016-12-23T00:04:50.188Z,25.27
2016-12-23T00:05:04.759Z,25.33
2016-12-23T00:05:19.238Z,25.27
2016-12-23T00:05:33.711Z,25.29
2016-12-23T00:05:48.163Z,25.27
2016-12-23T00:06:02.665Z,25.32
2016-12-23T00:06:17.006Z,25.2
2016-12-23T00:06:31.528Z,25.19
2016-12-23T00:06:46.063Z,25.19
2016-12-23T00:07:00.561Z,25.19
2016-12-23T00:07:15.163Z,25.15
2016-12-23T00:07:29.730Z,25.2
2016-12-23T00:07:44.230Z,25.2
2016-12-23T00:07:58.736Z,25.19
2016-12-23T00:08:13.123Z,25.19
2016-12-23T00:08:27.639Z,25.2
2016-12-23T00:08:42.064Z,25.22
2016-12-23T00:08:56.530Z,25.17
2016-12-23T00:09:11.201Z,25.17
2016-12-23T00:09:25.805Z,25.17
2016-12-23T00:09:40.356Z,25.17
2016-12-23T00:09:54.816Z,25.15
2016-12-23T00:10:09.265Z,25.15
2016-12-23T00:10:23.703Z,25.12
2016-12-23T00:10:38.151Z,25.2
2016-12-23T00:10:52.601Z,25.22
2016-12-23T00:11:06.996Z,25.22
2016-12-23T00:11:21.484Z,25.15
2016-12-23T00:11:35.985Z,25.19
2016-12-23T00:11:50.411Z,25.15
2016-12-23T00:12:04.865Z,25.19
2016-12-23T00:12:19.227Z,25.19
2016-12-23T00:12:33.813Z,25.2
2016-12-23T00:12:48.269Z,25.05
2016-12-23T00:13:02.786Z,25.04
2016-12-23T00:13:17.200Z,25.14
2016-12-23T00:13:31.652Z,25.17
2016-12-23T00:13:46.190Z,25.19
2016-12-23T00:14:00.705Z,25.2
2016-12-23T00:14:15.481Z,25.22
2016-12-23T00:14:29.898Z,25.19
2016-12-23T00:14:44.325Z,25.15
2016-12-23T00:14:58.770Z,25.19
2016-12-23T00:15:13.174Z,25.22
2016-12-23T00:15:27.618Z,25.2
2016-12-23T00:15:42.139Z,25.17
2016-12-23T00:15:56.532Z,25.17
2016-12-23T00:16:11.014Z,25.17
2016-12-23T00:16:25.542Z,25.19
2016-12-23T00:16:40.511Z,25.29
2016-12-23T00:16:55.030Z,25.29
2016-12-23T00:17:09.523Z,25.3
2016-12-23T00:17:24.192Z,25.37
2016-12-23T00:17:38.812Z,25.32
2016-12-23T00:17:53.469Z,25.37
2016-12-23T00:18:08.162Z,25.45
2016-12-23T00:18:22.816Z,25.38
2016-12-23T00:18:37.354Z,25.42
2016-12-23T00:18:51.740Z,25.39
2016-12-23T00:19:06.290Z,25.38
2016-12-23T00:19:20.862Z,25.33
2016-12-23T00:19:35.307Z,25.44
2016-12-23T00:19:49.814Z,25.38
2016-12-23T00:20:04.229Z,25.37
2016-12-23T00:20:18.735Z,25.37
2016-12-23T00:20:33.229Z,25.38
2016-12-23T00:20:47.717Z,25.39
2016-12-23T00:21:02.172Z,25.45
2016-12-23T00:21:16.550Z,25.52
2016-12-23T00:21:31.018Z,25.47
2016-12-23T00:21:45.498Z,25.44
2016-12-23T00:22:00.004Z,25.52
2016-12-23T00:22:14.500Z,25.56
2016-12-23T00:22:28.992Z,25.66
2016-12-23T00:22:43.406Z,25.64
2016-12-23T00:22:57.974Z,25.71
2016-12-23T00:23:12.332Z,25.69
2016-12-23T00:23:26.661Z,25.63
2016-12-23T00:23:41.109Z,25.67
2016-12-23T00:23:55.644Z,25.64
2016-12-23T00:24:10.188Z,25.71
2016-12-23T00:24:24.633Z,25.67
2016-12-23T00:24:38.971Z,25.69
2016-12-23T00:24:53.375Z,25.69
2016-12-23T00:25:07.861Z,25.7
2016-12-23T00:25:22.272Z,25.74
2016-12-23T00:25:36.724Z,25.71
2016-12-23T00:25:51.123Z,25.64
2016-12-23T00:26:05.519Z,25.67
2016-12-23T00:26:19.948Z,25.66
2016-12-23T00:26:34.299Z,25.66
2016-12-23T00:26:48.645Z,25.67
2016-12-23T00:27:03.078Z,25.69
2016-12-23T00:27:17.429Z,25.62
2016-12-23T00:27:31.889Z,25.63
2016-12-23T00:27:46.268Z,25.57
2016-12-23T00:28:00.672Z,25.66
2016-12-23T00:28:15.182Z,25.64
2016-12-23T00:28:29.633Z,25.66
2016-12-23T00:28:44.089Z,25.66
2016-12-23T00:28:58.577Z,25.71
2016-12-23T00:29:12.923Z,25.7
2016-12-23T00:29:27.339Z,25.7
2016-12-23T00:29:41.644Z,25.69
2016-12-23T00:29:56.079Z,25.71
2016-12-23T00:30:10.501Z,25.71
2016-12-23T00:30:25.044Z,25.71
2016-12-23T00:30:39.454Z,25.76
2016-12-23T00:30:53.934Z,25.75
2016-12-23T00:31:08.348Z,25.76
2016-12-23T00:31:22.808Z,25.75
2016-12-23T00:31:37.250Z,25.78
2016-12-23T00:31:51.896Z,25.71
2016-12-23T00:32:06.274Z,25.74
2016-12-23T00:32:20.753Z,25.71
2016-12-23T00:32:35.210Z,25.74
2016-12-23T00:32:49.668Z,25.69
2016-12-23T00:33:04.190Z,25.7
2016-12-23T00:33:18.563Z,25.78
2016-12-23T00:33:32.984Z,25.71
2016-12-23T00:33:47.433Z,25.75
2016-12-23T00:34:01.832Z,25.7
2016-12-23T00:34:16.284Z,25.74
2016-12-23T00:34:30.733Z,25.76
2016-12-23T00:34:45.208Z,25.75
2016-12-23T00:34:59.812Z,25.78
2016-12-23T00:35:14.340Z,25.78
2016-12-23T00:35:28.756Z,25.67
2016-12-23T00:35:43.251Z,25.64
2016-12-23T00:35:57.626Z,25.67
2016-12-23T00:36:12.177Z,25.67
2016-12-23T00:36:26.593Z,25.66
2016-12-23T00:36:40.988Z,25.64
2016-12-23T00:36:55.432Z,25.63
2016-12-23T00:37:09.889Z,25.66
2016-12-23T00:37:24.268Z,25.62
2016-12-23T00:37:38.796Z,25.62
2016-12-23T00:37:53.259Z,25.71
2016-12-23T00:38:07.757Z,25.66
2016-12-23T00:38:22.252Z,25.69
2016-12-23T00:38:36.677Z,25.75
2016-12-23T00:38:51.228Z,25.75
2016-12-23T00:39:05.707Z,25.78
2016-12-23T00:39:20.202Z,25.7
2016-12-23T00:39:34.625Z,25.69
2016-12-23T00:39:49.205Z,25.75
2016-12-23T00:40:03.639Z,25.74
2016-12-23T00:40:17.933Z,25.76
2016-12-23T00:40:32.333Z,25.71
2016-12-23T00:40:47.009Z,25.71
2016-12-23T00:41:01.389Z,25.7
2016-12-23T00:41:15.790Z,25.71
2016-12-23T00:41:30.206Z,25.74
2016-12-23T00:41:44.657Z,25.66
2016-12-23T00:41:59.182Z,25.71
2016-12-23T00:42:13.591Z,25.7
2016-12-23T00:42:27.967Z,25.71
2016-12-23T00:42:42.467Z,25.62
2016-12-23T00:42:56.873Z,25.59
2016-12-23T00:43:11.334Z,25.48
2016-12-23T00:43:25.898Z,25.47
2016-12-23T00:43:40.295Z,25.52
2016-12-23T00:43:54.745Z,25.45
2016-12-23T00:44:09.191Z,25.42
2016-12-23T00:44:23.701Z,25.45
2016-12-23T00:44:38.175Z,25.39
2016-12-23T00:44:52.582Z,25.37
2016-12-23T00:45:07.017Z,25.38
2016-12-23T00:45:21.452Z,25.42
2016-12-23T00:45:35.907Z,25.37
2016-12-23T00:45:50.265Z,25.33
2016-12-23T00:46:04.633Z,25.33
2016-12-23T00:46:19.049Z,25.34
2016-12-23T00:46:33.557Z,25.38
2016-12-23T00:46:47.918Z,25.32
2016-12-23T00:47:02.533Z,25.42
2016-12-23T00:47:17.028Z,25.37
2016-12-23T00:47:31.551Z,25.23
2016-12-23T00:47:45.993Z,25.17
2016-12-23T00:48:00.388Z,25.3
2016-12-23T00:48:14.872Z,25.14
2016-12-23T00:48:29.394Z,25.15
2016-12-23T00:48:43.877Z,25.17
2016-12-23T00:48:58.259Z,25.19
2016-12-23T00:49:12.744Z,25.19
2016-12-23T00:49:27.275Z,25.17
2016-12-23T00:49:41.779Z,25.3
2016-12-23T00:49:56.178Z,25.19
2016-12-23T00:50:10.520Z,25.2
2016-12-23T00:50:24.893Z,25.19
2016-12-23T00:50:39.395Z,25.2
2016-12-23T00:50:53.881Z,25.24
2016-12-23T00:51:08.283Z,25.2
2016-12-23T00:51:22.762Z,25.17
2016-12-23T00:51:37.188Z,25.22
2016-12-23T00:51:51.622Z,25.11
2016-12-23T00:52:06.069Z,25.12
2016-12-23T00:52:20.514Z,25.11
2016-12-23T00:52:34.916Z,25.09
2016-12-23T00:52:49.421Z,25.11
2016-12-23T00:53:03.868Z,25.14
2016-12-23T00:53:18.410Z,25.2
2016-12-23T00:53:32.847Z,25.22
2016-12-23T00:53:47.402Z,25.09
2016-12-23T00:54:01.895Z,25.19
2016-12-23T00:54:16.265Z,25.15
2016-12-23T00:54:30.680Z,25.2
2016-12-23T00:54:45.189Z,25.19
2016-12-23T00:54:59.618Z,25.22
2016-12-23T00:55:14.134Z,25.2
2016-12-23T00:55:28.565Z,25.15
2016-12-23T00:55:42.967Z,25.23
2016-12-23T00:55:57.478Z,25.17
2016-12-23T00:56:11.955Z,25.08
2016-12-23T00:56:26.430Z,25.2
2016-12-23T00:56:40.804Z,25.17
2016-12-23T00:56:55.324Z,25.19
2016-12-23T00:57:09.659Z,25.29
2016-12-23T00:57:24.029Z,25.3
2016-12-23T00:57:38.650Z,25.29
2016-12-23T00:57:53.214Z,25.3
2016-12-23T00:58:07.586Z,25.26
2016-12-23T00:58:22.032Z,25.34
2016-12-23T00:58:36.411Z,25.33
2016-12-23T00:58:50.837Z,25.33
2016-12-23T00:59:05.307Z,25.23
2016-12-23T00:59:19.681Z,25.2
2016-12-23T00:59:34.159Z,25.2
2016-12-23T00:59:48.626Z,25.2
2016-12-23T01:00:03.075Z,25.14
2016-12-23T01:00:17.510Z,25.19
2016-12-23T01:00:31.899Z,25.15
2016-12-23T01:00:46.342Z,25.2
2016-12-23T01:01:00.682Z,25.11
2016-12-23T01:01:15.097Z,25.07
2016-12-23T01:01:29.509Z,25.15
2016-12-23T01:01:43.970Z,25.11
2016-12-23T01:01:58.386Z,25.14
2016-12-23T01:02:13.012Z,25.02
2016-12-23T01:02:27.358Z,25.12
2016-12-23T01:02:41.730Z,25.04
2016-12-23T01:02:56.136Z,25.02
2016-12-23T01:03:10.525Z,25.04
2016-12-23T01:03:24.875Z,25.08
2016-12-23T01:03:39.233Z,25
2016-12-23T01:03:53.647Z,25.08
2016-12-23T01:04:08.016Z,24.96
2016-12-23T01:04:22.343Z,24.96
2016-12-23T01:04:36.665Z,25
2016-12-23T01:04:51.028Z,24.94
2016-12-23T01:05:05.399Z,25.05
2016-12-23T01:05:19.780Z,25.05
2016-12-23T01:05:34.145Z,25.08
2016-12-23T01:05:48.612Z,25.05
2016-12-23T01:06:03.021Z,25.04
2016-12-23T01:06:17.366Z,25.04
2016-12-23T01:06:31.753Z,25.11
2016-12-23T01:06:46.193Z,25.14
2016-12-23T01:07:00.570Z,25.22
2016-12-23T01:07:14.971Z,25.12
2016-12-23T01:07:29.320Z,25.17
2016-12-23T01:07:43.651Z,25.19
2016-12-23T01:07:57.985Z,25.2
2016-12-23T01:08:12.403Z,25.3
2016-12-23T01:08:26.809Z,25.27
2016-12-23T01:08:41.258Z,25.27
2016-12-23T01:08:55.555Z,25.3
2016-12-23T01:09:09.912Z,25.33
2016-12-23T01:09:24.236Z,25.3
2016-12-23T01:09:38.629Z,25.37
2016-12-23T01:09:53.043Z,25.29
2016-12-23T01:10:07.368Z,25.34
2016-12-23T01:10:21.789Z,25.34
2016-12-23T01:10:36.159Z,25.3
2016-12-23T01:10:50.553Z,25.34
2016-12-23T01:11:04.929Z,25.34
2016-12-23T01:11:19.377Z,25.3
2016-12-23T01:11:33.803Z,25.37
2016-12-23T01:11:48.200Z,25.37
2016-12-23T01:12:02.574Z,25.41
2016-12-23T01:12:16.951Z,25.45
2016-12-23T01:12:31.402Z,25.44
2016-12-23T01:12:45.764Z,25.44
2016-12-23T01:13:00.148Z,25.41
2016-12-23T01:13:14.500Z,25.38
2016-12-23T01:13:28.883Z,25.37
2016-12-23T01:13:43.268Z,25.39
2016-12-23T01:13:57.670Z,25.34
2016-12-23T01:14:12.079Z,25.32
2016-12-23T01:14:26.532Z,25.38
2016-12-23T01:14:40.896Z,25.33
2016-12-23T01:14:55.362Z,25.29
2016-12-23T01:15:09.802Z,25.29
2016-12-23T01:15:24.156Z,25.27
2016-12-23T01:15:38.615Z,25.38
2016-12-23T01:15:52.986Z,25.34
2016-12-23T01:16:07.404Z,25.48
2016-12-23T01:16:21.833Z,25.49
2016-12-23T01:16:36.189Z,25.44
2016-12-23T01:16:50.497Z,25.45
2016-12-23T01:17:04.878Z,25.57
2016-12-23T01:17:19.568Z,25.51
2016-12-23T01:17:33.925Z,25.49
2016-12-23T01:17:48.308Z,25.52
2016-12-23T01:18:02.747Z,25.47
2016-12-23T01:18:17.114Z,25.48
2016-12-23T01:18:31.465Z,25.45
2016-12-23T01:18:45.964Z,25.47
2016-12-23T01:19:00.361Z,25.41
2016-12-23T01:19:14.678Z,25.42
2016-12-23T01:19:29.091Z,25.32
2016-12-23T01:19:43.482Z,25.34
2016-12-23T01:19:57.885Z,25.33
2016-12-23T01:20:12.202Z,25.32
2016-12-23T01:20:26.604Z,25.37
2016-12-23T01:20:40.998Z,25.33
2016-12-23T01:20:55.542Z,25.34
2016-12-23T01:21:09.912Z,25.39
2016-12-23T01:21:24.327Z,25.34
2016-12-23T01:21:38.684Z,25.41
2016-12-23T01:21:53.114Z,25.38
2016-12-23T01:22:07.493Z,25.39
2016-12-23T01:22:21.897Z,25.3
2016-12-23T01:22:36.273Z,25.29
2016-12-23T01:22:50.711Z,25.32
2016-12-23T01:23:05.104Z,25.29
2016-12-23T01:23:19.404Z,25.33
2016-12-23T01:23:33.791Z,25.19
2016-12-23T01:23:48.117Z,25.2
2016-12-23T01:24:02.522Z,25.15
2016-12-23T01:24:16.843Z,25.2
2016-12-23T01:24:31.174Z,25.2
2016-12-23T01:24:45.587Z,25.15
2016-12-23T01:24:59.970Z,25.15
2016-12-23T01:25:14.313Z,25.15
2016-12-23T01:25:28.622Z,25.11
2016-12-23T01:25:43.008Z,25.02
2016-12-23T01:25:57.401Z,25.08
2016-12-23T01:26:11.724Z,25.14
2016-12-23T01:26:26.057Z,25.05
2016-12-23T01:26:40.395Z,25
2016-12-23T01:26:54.758Z,25.02
2016-12-23T01:27:09.145Z,25.02
2016-12-23T01:27:23.482Z,24.94
2016-12-23T01:27:37.951Z,24.94
2016-12-23T01:27:52.359Z,24.87
2016-12-23T01:28:06.722Z,24.83
2016-12-23T01:28:21.153Z,24.83
2016-12-23T01:28:35.554Z,24.8
2016-12-23T01:28:49.944Z,24.77
2016-12-23T01:29:04.303Z,24.77
2016-12-23T01:29:18.687Z,24.71
2016-12-23T01:29:33.051Z,24.78
2016-12-23T01:29:47.453Z,24.77
2016-12-23T01:30:01.832Z,24.74
2016-12-23T01:30:16.205Z,24.7
2016-12-23T01:30:30.600Z,24.75
2016-12-23T01:30:44.967Z,24.67
2016-12-23T01:30:59.374Z,24.69
2016-12-23T01:31:13.725Z,24.64
2016-12-23T01:31:28.139Z,24.71
2016-12-23T01:31:42.587Z,24.67
2016-12-23T01:31:57.010Z,24.69
2016-12-23T01:32:11.377Z,24.67
2016-12-23T01:32:26.063Z,24.66
2016-12-23T01:32:40.452Z,24.67
2016-12-23T01:32:54.798Z,24.66
2016-12-23T01:33:09.126Z,24.66
2016-12-23T01:33:23.460Z,24.64
2016-12-23T01:33:37.903Z,24.67
2016-12-23T01:33:52.376Z,24.69
2016-12-23T01:34:06.794Z,24.66
2016-12-23T01:34:21.183Z,24.66
2016-12-23T01:34:35.576Z,24.67
2016-12-23T01:34:50.089Z,24.66
2016-12-23T01:35:04.441Z,24.71
2016-12-23T01:35:18.858Z,24.67
2016-12-23T01:35:33.220Z,24.71
2016-12-23T01:35:47.533Z,24.64
2016-12-23T01:36:01.953Z,24.74
2016-12-23T01:36:16.356Z,24.67
2016-12-23T01:36:30.822Z,24.66
2016-12-23T01:36:45.162Z,24.61
2016-12-23T01:36:59.552Z,24.63
2016-12-23T01:37:13.968Z,24.66
2016-12-23T01:37:28.329Z,24.67
2016-12-23T01:37:42.727Z,24.69
2016-12-23T01:37:57.144Z,24.7
2016-12-23T01:38:11.508Z,24.71
2016-12-23T01:38:25.870Z,24.69
2016-12-23T01:38:40.304Z,24.74
2016-12-23T01:38:54.643Z,24.75
2016-12-23T01:39:09.043Z,24.82
2016-12-23T01:39:23.399Z,24.8
2016-12-23T01:39:37.789Z,24.83
2016-12-23T01:39:52.169Z,24.83
2016-12-23T01:40:06.581Z,24.8
2016-12-23T01:40:21.047Z,24.89
2016-12-23T01:40:35.488Z,24.83
2016-12-23T01:40:49.854Z,24.83
2016-12-23T01:41:04.267Z,24.83
2016-12-23T01:41:18.602Z,24.85
2016-12-23T01:41:33.071Z,24.83
2016-12-23T01:41:47.523Z,24.86
2016-12-23T01:42:01.940Z,24.85
2016-12-23T01:42:16.361Z,24.89
2016-12-23T01:42:30.632Z,24.86
2016-12-23T01:42:44.959Z,24.83
2016-12-23T01:42:59.379Z,24.78
2016-12-23T01:43:13.709Z,24.87
2016-12-23T01:43:28.109Z,24.83
2016-12-23T01:43:42.519Z,24.87
2016-12-23T01:43:56.880Z,24.89
2016-12-23T01:44:11.282Z,24.94
2016-12-23T01:44:25.619Z,24.94
2016-12-23T01:44:40.018Z,24.92
2016-12-23T01:44:54.461Z,24.96
2016-12-23T01:45:08.908Z,24.9
2016-12-23T01:45:23.306Z,24.9
2016-12-23T01:45:37.680Z,24.96
2016-12-23T01:45:52.067Z,24.93
2016-12-23T01:46:06.455Z,24.92
2016-12-23T01:46:20.787Z,24.93
2016-12-23T01:46:35.090Z,24.97
2016-12-23T01:46:49.466Z,24.96
2016-12-23T01:47:03.757Z,24.97
2016-12-23T01:47:18.096Z,24.92
2016-12-23T01:47:32.675Z,24.92
2016-12-23T01:47:47.044Z,24.83
2016-12-23T01:48:01.453Z,24.8
2016-12-23T01:48:15.829Z,24.83
2016-12-23T01:48:30.235Z,24.82
2016-12-23T01:48:44.625Z,24.85
2016-12-23T01:48:59.013Z,24.8
2016-12-23T01:49:13.358Z,24.87
2016-12-23T01:49:27.734Z,24.85
2016-12-23T01:49:42.157Z,24.83
2016-12-23T01:49:56.576Z,24.85
2016-12-23T01:50:10.959Z,24.78
2016-12-23T01:50:25.347Z,24.93
2016-12-23T01:50:39.671Z,24.87
2016-12-23T01:50:54.039Z,24.92
2016-12-23T01:51:08.394Z,25.07
2016-12-23T01:51:22.786Z,24.96
2016-12-23T01:51:37.192Z,25.01
2016-12-23T01:51:51.627Z,24.96
2016-12-23T01:52:06.030Z,24.93
2016-12-23T01:52:20.416Z,24.9
2016-12-23T01:52:34.808Z,24.94
2016-12-23T01:52:49.217Z,24.94
2016-12-23T01:53:03.621Z,24.92
2016-12-23T01:53:18.020Z,24.89
2016-12-23T01:53:32.446Z,24.94
2016-12-23T01:53:46.781Z,24.97
2016-12-23T01:54:01.186Z,24.92
2016-12-23T01:54:15.616Z,24.78
2016-12-23T01:54:29.995Z,24.8
2016-12-23T01:54:44.440Z,24.92
2016-12-23T01:54:58.830Z,24.83
2016-12-23T01:55:13.244Z,24.87
2016-12-23T01:55:27.606Z,24.85
2016-12-23T01:55:41.948Z,24.82
2016-12-23T01:55:56.330Z,24.89
2016-12-23T01:56:10.741Z,24.89
2016-12-23T01:56:25.037Z,24.85
2016-12-23T01:56:39.500Z,24.89
2016-12-23T01:56:53.828Z,24.85
2016-12-23T01:57:08.233Z,24.86
2016-12-23T01:57:22.587Z,24.83
2016-12-23T01:57:37.035Z,24.83
2016-12-23T01:57:51.404Z,24.75
2016-12-23T01:58:05.834Z,24.86
2016-12-23T01:58:20.191Z,24.74
2016-12-23T01:58:34.539Z,24.78
2016-12-23T01:58:48.843Z,24.77
2016-12-23T01:59:03.306Z,24.8
2016-12-23T01:59:17.713Z,24.78
2016-12-23T01:59:32.108Z,24.82
2016-12-23T01:59:46.447Z,24.86
2016-12-23T02:00:00.853Z,24.86
2016-12-23T02:00:15.180Z,24.82
2016-12-23T02:00:29.509Z,24.85
2016-12-23T02:00:43.902Z,24.8
2016-12-23T02:00:58.220Z,24.82
2016-12-23T02:01:12.641Z,24.8
2016-12-23T02:01:27.024Z,24.71
2016-12-23T02:01:41.439Z,24.8
2016-12-23T02:01:55.885Z,24.75
2016-12-23T02:02:10.225Z,24.9
2016-12-23T02:02:24.514Z,24.9
2016-12-23T02:02:39.127Z,24.89
2016-12-23T02:02:53.500Z,24.85
2016-12-23T02:03:07.938Z,24.86
2016-12-23T02:03:22.315Z,24.86
2016-12-23T02:03:36.685Z,24.83
2016-12-23T02:03:51.081Z,24.85
2016-12-23T02:04:05.531Z,24.86
2016-12-23T02:04:19.979Z,24.86
2016-12-23T02:04:34.406Z,24.71
2016-12-23T02:04:48.777Z,24.69
2016-12-23T02:05:03.128Z,24.71
2016-12-23T02:05:17.523Z,24.74
2016-12-23T02:05:31.922Z,24.7
2016-12-23T02:05:46.335Z,24.78
2016-12-23T02:06:00.693Z,24.71
2016-12-23T02:06:15.135Z,24.64
2016-12-23T02:06:29.500Z,24.69
2016-12-23T02:06:43.836Z,24.7
2016-12-23T02:06:58.214Z,24.67
2016-12-23T02:07:12.602Z,24.74
2016-12-23T02:07:27.005Z,24.69
2016-12-23T02:07:41.348Z,24.67
2016-12-23T02:07:55.718Z,24.69
2016-12-23T02:08:10.177Z,24.66
2016-12-23T02:08:24.568Z,24.66
2016-12-23T02:08:38.909Z,24.64
2016-12-23T02:08:53.280Z,24.69
2016-12-23T02:09:07.636Z,24.52
2016-12-23T02:09:22.061Z,24.66
2016-12-23T02:09:36.471Z,24.54
2016-12-23T02:09:50.867Z,24.56
2016-12-23T02:10:05.247Z,24.56
2016-12-23T02:10:19.665Z,24.59
2016-12-23T02:10:34.001Z,24.56
2016-12-23T02:10:48.389Z,24.54
2016-12-23T02:11:02.771Z,24.59
2016-12-23T02:11:17.140Z,24.63
2016-12-23T02:11:31.556Z,24.58
2016-12-23T02:11:45.946Z,24.58
2016-12-23T02:12:00.335Z,24.54
2016-12-23T02:12:14.751Z,24.48
2016-12-23T02:12:29.140Z,24.46
2016-12-23T02:12:43.469Z,24.52
2016-12-23T02:12:57.913Z,24.49
2016-12-23T02:13:12.296Z,24.45
2016-12-23T02:13:26.659Z,24.49
2016-12-23T02:13:41.039Z,24.49
2016-12-23T02:13:55.396Z,24.48
2016-12-23T02:14:09.804Z,24.48
2016-12-23T02:14:24.166Z,24.46
2016-12-23T02:14:38.516Z,24.48
2016-12-23T02:14:52.882Z,24.48
2016-12-23T02:15:07.207Z,24.45
2016-12-23T02:15:21.557Z,24.46
2016-12-23T02:15:35.973Z,24.49
2016-12-23T02:15:50.324Z,24.42
2016-12-23T02:16:04.719Z,24.37
2016-12-23T02:16:19.148Z,24.36
2016-12-23T02:16:33.496Z,24.37
2016-12-23T02:16:47.916Z,24.42
2016-12-23T02:17:02.361Z,24.37
2016-12-23T02:17:16.802Z,24.45
2016-12-23T02:17:31.198Z,24.32
2016-12-23T02:17:45.698Z,24.4
2016-12-23T02:18:00.114Z,24.33
2016-12-23T02:18:14.568Z,24.37
2016-12-23T02:18:28.941Z,24.34
2016-12-23T02:18:43.327Z,24.37
2016-12-23T02:18:57.636Z,24.34
2016-12-23T02:19:12.086Z,24.39
2016-12-23T02:19:26.443Z,24.42
2016-12-23T02:19:40.822Z,24.36
2016-12-23T02:19:55.243Z,24.36
2016-12-23T02:20:09.629Z,24.4
2016-12-23T02:20:24.020Z,24.39
2016-12-23T02:20:38.439Z,24.36
2016-12-23T02:20:52.845Z,24.39
2016-12-23T02:21:07.214Z,24.34
2016-12-23T02:21:21.583Z,24.39
2016-12-23T02:21:35.993Z,24.29
2016-12-23T02:21:50.394Z,24.34
2016-12-23T02:22:04.844Z,24.27
2016-12-23T02:22:19.191Z,24.32
2016-12-23T02:22:33.571Z,24.34
2016-12-23T02:22:47.952Z,24.29
2016-12-23T02:23:02.341Z,24.29
2016-12-23T02:23:16.722Z,24.3
2016-12-23T02:23:31.174Z,24.29
2016-12-23T02:23:45.511Z,24.29
2016-12-23T02:23:59.983Z,24.22
2016-12-23T02:24:14.351Z,24.3
2016-12-23T02:24:28.718Z,24.32
2016-12-23T02:24:43.088Z,24.26
2016-12-23T02:24:57.484Z,24.24
2016-12-23T02:25:11.860Z,24.22
2016-12-23T02:25:26.263Z,24.19
2016-12-23T02:25:40.557Z,24.17
2016-12-23T02:25:54.878Z,24.14
2016-12-23T02:26:09.171Z,24.15
2016-12-23T02:26:23.521Z,24.08
2016-12-23T02:26:37.942Z,24.03
2016-12-23T02:26:52.361Z,24.04
2016-12-23T02:27:06.726Z,24.04
2016-12-23T02:27:21.158Z,24.04
2016-12-23T02:27:35.586Z,24.04
2016-12-23T02:27:49.961Z,24.07
2016-12-23T02:28:04.342Z,24.03
2016-12-23T02:28:18.669Z,24
2016-12-23T02:28:33.109Z,23.9
2016-12-23T02:28:47.427Z,24
2016-12-23T02:29:01.761Z,24.03
2016-12-23T02:29:16.175Z,23.92
2016-12-23T02:29:30.573Z,24.04
2016-12-23T02:29:44.963Z,23.96
2016-12-23T02:29:59.332Z,23.99
2016-12-23T02:30:13.673Z,23.93
2016-12-23T02:30:28.094Z,24.08
2016-12-23T02:30:42.544Z,23.99
2016-12-23T02:30:56.961Z,23.94
2016-12-23T02:31:11.363Z,23.97
2016-12-23T02:31:25.741Z,24
2016-12-23T02:31:40.189Z,23.96
2016-12-23T02:31:54.608Z,24
2016-12-23T02:32:09.007Z,24.02
2016-12-23T02:32:23.456Z,23.92
2016-12-23T02:32:37.817Z,23.89
2016-12-23T02:32:52.293Z,23.97
2016-12-23T02:33:06.716Z,23.93
2016-12-23T02:33:21.106Z,23.94
2016-12-23T02:33:35.537Z,23.96
2016-12-23T02:33:49.916Z,23.96
2016-12-23T02:34:04.366Z,24.02
2016-12-23T02:34:18.723Z,23.93
2016-12-23T02:34:33.110Z,23.97
2016-12-23T02:34:47.547Z,23.97
2016-12-23T02:35:01.930Z,23.89
2016-12-23T02:35:16.263Z,23.93
2016-12-23T02:35:30.611Z,23.92
2016-12-23T02:35:44.985Z,23.89
2016-12-23T02:35:59.375Z,23.82
2016-12-23T02:36:13.751Z,23.84
2016-12-23T02:36:28.142Z,23.77
2016-12-23T02:36:42.489Z,23.82
2016-12-23T02:36:56.832Z,23.81
2016-12-23T02:37:11.200Z,23.82
2016-12-23T02:37:25.607Z,23.84
2016-12-23T02:37:40.006Z,23.75
2016-12-23T02:37:54.371Z,23.72
2016-12-23T02:38:08.733Z,23.72
2016-12-23T02:38:23.100Z,23.78
2016-12-23T02:38:37.471Z,23.77
2016-12-23T02:38:51.840Z,23.75
2016-12-23T02:39:06.210Z,23.67
2016-12-23T02:39:20.601Z,23.67
2016-12-23T02:39:35.063Z,23.64
2016-12-23T02:39:49.415Z,23.64
2016-12-23T02:40:03.903Z,23.53
2016-12-23T02:40:18.300Z,23.66
2016-12-23T02:40:32.680Z,23.63
2016-12-23T02:40:47.058Z,23.55
2016-12-23T02:41:01.468Z,23.64
2016-12-23T02:41:15.883Z,23.57
2016-12-23T02:41:30.313Z,23.59
2016-12-23T02:41:44.724Z,23.63
2016-12-23T02:41:59.107Z,23.63
2016-12-23T02:42:13.540Z,23.62
2016-12-23T02:42:27.889Z,23.6
2016-12-23T02:42:42.268Z,23.63
2016-12-23T02:42:56.618Z,23.63
2016-12-23T02:43:10.960Z,23.55
2016-12-23T02:43:25.365Z,23.71
2016-12-23T02:43:39.721Z,23.57
2016-12-23T02:43:54.193Z,23.63
2016-12-23T02:44:08.579Z,23.63
2016-12-23T02:44:22.976Z,23.57
2016-12-23T02:44:37.315Z,23.63
2016-12-23T02:44:51.686Z,23.59
2016-12-23T02:45:06.148Z,23.64
2016-12-23T02:45:20.480Z,23.56
2016-12-23T02:45:34.870Z,23.53
2016-12-23T02:45:49.262Z,23.44
2016-12-23T02:46:03.607Z,23.48
2016-12-23T02:46:17.943Z,23.5
2016-12-23T02:46:32.307Z,23.52
2016-12-23T02:46:46.756Z,23.53
2016-12-23T02:47:01.081Z,23.56
2016-12-23T02:47:15.452Z,23.56
2016-12-23T02:47:29.929Z,23.62
2016-12-23T02:47:44.427Z,23.66
2016-12-23T02:47:59.274Z,23.63
2016-12-23T02:48:13.694Z,23.63
2016-12-23T02:48:28.083Z,23.64
2016-12-23T02:48:42.541Z,23.64
2016-12-23T02:48:57.017Z,23.63
2016-12-23T02:49:11.411Z,23.63
2016-12-23T02:49:25.817Z,23.7
2016-12-23T02:49:40.236Z,23.7
2016-12-23T02:49:54.628Z,23.59
2016-12-23T02:50:09.093Z,23.62
2016-12-23T02:50:23.501Z,23.59
2016-12-23T02:50:37.903Z,23.62
2016-12-23T02:50:52.355Z,23.47
2016-12-23T02:51:06.779Z,23.52
2016-12-23T02:51:21.190Z,23.48
2016-12-23T02:51:35.524Z,23.55
2016-12-23T02:51:49.905Z,23.5
2016-12-23T02:52:04.287Z,23.48
2016-12-23T02:52:18.713Z,23.47
2016-12-23T02:52:33.087Z,23.42
2016-12-23T02:52:47.485Z,23.44
2016-12-23T02:53:01.847Z,23.37
2016-12-23T02:53:16.257Z,23.41
2016-12-23T02:53:30.674Z,23.4
2016-12-23T02:53:44.982Z,23.28
2016-12-23T02:53:59.407Z,23.34
2016-12-23T02:54:13.822Z,23.26
2016-12-23T02:54:28.250Z,23.32
2016-12-23T02:54:42.646Z,23.32
2016-12-23T02:54:57.107Z,23.25
2016-12-23T02:55:11.517Z,23.35
2016-12-23T02:55:25.907Z,23.32
2016-12-23T02:55:40.325Z,23.24
2016-12-23T02:55:54.747Z,23.28
2016-12-23T02:56:09.192Z,23.25
2016-12-23T02:56:23.576Z,23.26
2016-12-23T02:56:38.012Z,23.26
2016-12-23T02:56:52.411Z,23.29
2016-12-23T02:57:06.775Z,23.34
2016-12-23T02:57:21.241Z,23.26
2016-12-23T02:57:35.623Z,23.29
2016-12-23T02:57:49.983Z,23.24
2016-12-23T02:58:04.347Z,23.28
2016-12-23T02:58:18.687Z,23.32
2016-12-23T02:58:33.142Z,23.37
2016-12-23T02:58:47.540Z,23.28
2016-12-23T02:59:01.958Z,23.26
2016-12-23T02:59:16.289Z,23.32
2016-12-23T02:59:30.618Z,23.28
2016-12-23T02:59:44.942Z,23.34
2016-12-23T02:59:59.338Z,23.32
2016-12-23T03:00:13.653Z,23.42
2016-12-23T03:00:28.080Z,23.37
2016-12-23T03:00:42.411Z,23.4
2016-12-23T03:00:56.792Z,23.35
2016-12-23T03:01:11.107Z,23.41
2016-12-23T03:01:25.507Z,23.38
2016-12-23T03:01:39.855Z,23.42
2016-12-23T03:01:54.301Z,23.37
2016-12-23T03:02:08.768Z,23.37
2016-12-23T03:02:23.207Z,23.37
2016-12-23T03:02:37.653Z,23.26
2016-12-23T03:02:52.121Z,23.28
2016-12-23T03:03:06.822Z,23.24
2016-12-23T03:03:21.265Z,23.28
2016-12-23T03:03:35.713Z,23.29
2016-12-23T03:03:50.130Z,23.34
2016-12-23T03:04:04.547Z,23.28
2016-12-23T03:04:18.997Z,23.35
2016-12-23T03:04:33.432Z,23.37
2016-12-23T03:04:47.865Z,23.28
2016-12-23T03:05:02.347Z,23.28
2016-12-23T03:05:16.838Z,23.28
2016-12-23T03:05:31.320Z,23.26
2016-12-23T03:05:45.657Z,23.28
2016-12-23T03:06:00.149Z,23.22
2016-12-23T03:06:14.508Z,23.26
2016-12-23T03:06:28.938Z,23.24